Time;durP1;ratioP1;P1;durP2;ratioP2;P2;SDS_P1;SDS_P2;PMS_P1;PMS_P2;Temp;Humidity;BMP_temperature;BMP_pressure;BME280_temperature;BME280_humidity;BME280_pressure;Samples;Min_cycle;Max_cycle;Signal;HPM_P1;HPM_P2
2022/07/26 00:00:54;;;;;;;9.20;1.80;;;;;;;20.64;69.09;101335.41;4977072;28;96870;-35
2022/07/26 00:03:20;;;;;;;7.68;1.50;;;;;;;20.68;69.06;101345.09;4976519;28;96617;-35
2022/07/26 00:05:46;;;;;;;7.85;1.40;;;;;;;20.72;69.38;101352.06;4976878;28;96879;-35
2022/07/26 00:08:11;;;;;;;1.85;0.88;;;;;;;20.72;69.02;101354.81;4976447;28;104589;-35
2022/07/26 00:10:39;;;;;;;6.35;1.08;;;;;;;20.64;69.56;101352.81;4976211;28;99132;-35
2022/07/26 00:13:04;;;;;;;5.07;1.27;;;;;;;20.62;69.37;101363.09;4975400;28;96755;-35
2022/07/26 00:15:30;;;;;;;7.72;1.33;;;;;;;20.55;69.18;101350.91;4976921;28;96723;-35
2022/07/26 00:17:55;;;;;;;2.60;1.13;;;;;;;20.57;69.26;101362.66;4976553;28;99399;-35
2022/07/26 00:20:20;;;;;;;6.15;1.10;;;;;;;20.46;69.51;101355.38;4976603;28;107125;-35
2022/07/26 00:22:46;;;;;;;5.00;1.20;;;;;;;20.47;69.19;101370.00;4976611;28;96508;-35
2022/07/26 00:25:11;;;;;;;3.53;1.02;;;;;;;20.42;69.49;101362.19;4976950;28;96768;-35
2022/07/26 00:27:36;;;;;;;5.05;1.17;;;;;;;20.39;68.97;101378.16;4975524;28;109642;-35
2022/07/26 00:30:05;;;;;;;4.28;1.30;;;;;;;20.44;68.87;101373.06;4976346;28;99147;-35
2022/07/26 00:32:30;;;;;;;3.90;0.93;;;;;;;20.36;68.48;101374.66;4975152;28;96621;-35
2022/07/26 00:34:55;;;;;;;6.07;1.20;;;;;;;20.34;68.72;101381.34;4976750;28;96762;-35
2022/07/26 00:37:21;;;;;;;4.00;1.08;;;;;;;20.37;68.28;101395.66;4976516;28;97826;-35
2022/07/26 00:39:47;;;;;;;5.93;1.10;;;;;;;20.35;68.58;101388.56;4976363;28;97599;-35
2022/07/26 00:42:12;;;;;;;1.60;1.00;;;;;;;20.31;68.13;101385.25;4975707;28;96895;-35
2022/07/26 00:44:40;;;;;;;4.22;1.25;;;;;;;20.29;68.06;101391.91;4976751;28;96824;-35
2022/07/26 00:47:05;;;;;;;4.70;1.48;;;;;;;20.32;67.81;101397.97;4974787;28;101142;-35
2022/07/26 00:49:31;;;;;;;1.52;0.75;;;;;;;20.24;67.96;101391.47;4976302;28;97898;-35
2022/07/26 00:51:56;;;;;;;6.88;1.08;;;;;;;20.24;67.84;101396.97;4975938;28;96499;-35
2022/07/26 00:54:22;;;;;;;3.25;1.17;;;;;;;20.23;67.68;101398.84;4976476;28;96765;-35
2022/07/26 00:56:47;;;;;;;3.90;1.00;;;;;;;20.27;67.47;101396.69;4975834;28;98131;-35
2022/07/26 00:59:25;;;;;;;2.58;1.10;;;;;;;20.26;67.63;101400.44;4976322;28;97456;-35
2022/07/26 01:01:50;;;;;;;8.13;1.08;;;;;;;20.18;67.51;101401.16;4976220;28;96675;-35
2022/07/26 01:04:15;;;;;;;1.15;0.90;;;;;;;20.12;67.17;101408.09;4976266;28;96804;-35
2022/07/26 01:06:41;;;;;;;2.50;1.48;;;;;;;20.10;67.50;101417.53;4975720;28;97400;-35
2022/07/26 01:09:07;;;;;;;3.08;1.20;;;;;;;20.09;67.01;101415.75;4976563;28;97319;-35
2022/07/26 01:11:32;;;;;;;2.20;1.23;;;;;;;20.10;66.79;101418.38;4975725;28;96697;-35
2022/07/26 01:13:58;;;;;;;4.20;1.00;;;;;;;20.09;66.97;101410.25;4976008;28;96867;-35
2022/07/26 01:16:24;;;;;;;3.20;1.10;;;;;;;20.06;66.91;101410.56;4975377;28;98184;-35
2022/07/26 01:18:49;;;;;;;3.00;1.15;;;;;;;20.04;66.66;101418.06;4975648;28;98635;-35
2022/07/26 01:21:15;;;;;;;1.88;1.02;;;;;;;19.93;66.70;101413.59;4976164;28;96540;-35
2022/07/26 01:23:42;;;;;;;2.15;1.10;;;;;;;19.92;66.49;101426.44;4974876;28;96812;-35
2022/07/26 01:26:09;;;;;;;2.75;1.30;;;;;;;19.88;66.49;101419.50;4974027;28;100929;-35
2022/07/26 01:28:36;;;;;;;2.60;1.00;;;;;;;19.88;66.54;101416.75;4974110;28;101076;-35
2022/07/26 01:31:03;;;;;;;1.70;1.17;;;;;;;19.83;66.54;101421.81;4974420;28;96689;-35
2022/07/26 01:33:29;;;;;;;2.95;1.00;;;;;;;19.80;66.47;101415.72;4974789;28;96922;-35
2022/07/26 01:35:54;;;;;;;2.55;1.05;;;;;;;19.85;66.34;101429.91;4974004;28;99300;-35
2022/07/26 01:38:20;;;;;;;1.40;0.93;;;;;;;19.83;65.97;101432.81;4975081;28;110487;-35
2022/07/26 01:40:45;;;;;;;5.03;1.23;;;;;;;19.79;66.05;101431.34;4974421;28;96734;-35
2022/07/26 01:43:10;;;;;;;2.20;1.42;;;;;;;19.73;65.84;101432.78;4975904;28;96490;-35
2022/07/26 01:45:36;;;;;;;4.25;1.20;;;;;;;19.75;66.05;101432.63;4975317;28;97843;-35
2022/07/26 01:48:01;;;;;;;5.93;1.55;;;;;;;19.70;65.94;101429.44;4975412;28;97831;-35
2022/07/26 01:50:26;;;;;;;4.30;1.50;;;;;;;19.77;65.76;101430.59;4975401;28;96734;-35
2022/07/26 01:52:52;;;;;;;3.22;1.30;;;;;;;19.72;65.61;101431.03;4975664;28;96951;-35
2022/07/26 01:55:17;;;;;;;1.77;1.10;;;;;;;19.69;65.59;101431.31;4974773;28;117578;-35
2022/07/26 01:57:45;;;;;;;4.70;1.35;;;;;;;19.70;65.60;101434.94;4975287;28;97253;-35
2022/07/26 02:00:12;;;;;;;4.10;1.30;;;;;;;19.76;65.60;101442.63;4975799;28;96681;-35
2022/07/26 02:02:37;;;;;;;1.77;1.02;;;;;;;19.69;65.60;101430.44;4973952;28;96914;-35
2022/07/26 02:05:04;;;;;;;1.42;0.88;;;;;;;19.66;65.72;101437.06;4974579;28;97307;-35
2022/07/26 02:07:32;;;;;;;3.78;1.38;;;;;;;19.66;65.46;101430.66;4973238;28;99907;-35
2022/07/26 02:09:58;;;;;;;3.67;0.93;;;;;;;19.67;65.95;101440.69;4974004;28;96656;-35
2022/07/26 02:12:24;;;;;;;4.22;1.50;;;;;;;19.59;65.78;101430.34;4973806;28;96850;-35
2022/07/26 02:14:50;;;;;;;3.92;1.17;;;;;;;19.62;65.63;101438.34;4975085;28;97828;-35
2022/07/26 02:17:16;;;;;;;4.18;1.02;;;;;;;19.61;65.61;101444.84;4973399;28;101339;-35
2022/07/26 02:19:41;;;;;;;1.73;1.33;;;;;;;19.58;65.73;101436.00;4973816;28;96654;-35
2022/07/26 02:22:07;;;;;;;2.03;1.20;;;;;;;19.52;65.83;101426.41;4975294;28;96931;-35
2022/07/26 02:24:33;;;;;;;5.15;1.50;;;;;;;19.40;66.07;101420.19;4974884;28;98246;-35
2022/07/26 02:26:59;;;;;;;4.05;1.17;;;;;;;19.45;65.72;101425.22;4973424;28;100771;-35
2022/07/26 02:29:26;;;;;;;2.25;1.13;;;;;;;19.37;66.11;101430.56;4973240;28;96631;-35
2022/07/26 02:31:52;;;;;;;1.88;1.08;;;;;;;19.37;66.10;101436.06;4973617;28;96865;-35
2022/07/26 02:34:18;;;;;;;3.70;1.20;;;;;;;19.37;66.66;101447.91;4973039;28;100973;-35
2022/07/26 02:36:44;;;;;;;4.55;1.30;;;;;;;19.38;66.73;101437.78;4974353;28;101200;-35
2022/07/26 02:39:09;;;;;;;5.90;1.10;;;;;;;19.33;66.83;101435.47;4973622;28;96682;-35
2022/07/26 02:41:35;;;;;;;4.40;1.00;;;;;;;19.29;66.16;101439.50;4974326;28;96955;-35
2022/07/26 02:44:00;;;;;;;1.13;0.88;;;;;;;19.27;66.68;101438.75;4974691;28;97508;-35
2022/07/26 02:46:26;;;;;;;4.13;1.42;;;;;;;19.29;66.36;101439.50;4975325;28;97292;-35
2022/07/26 02:48:51;;;;;;;2.83;1.13;;;;;;;19.27;66.75;101442.38;4974868;28;96632;-35
2022/07/26 02:51:16;;;;;;;2.47;1.23;;;;;;;19.25;66.78;101449.00;4975011;28;96791;-35
2022/07/26 02:53:42;;;;;;;5.07;1.20;;;;;;;19.18;67.08;101431.34;4973721;28;99368;-35
2022/07/26 02:56:07;;;;;;;5.25;1.33;;;;;;;19.12;67.56;101431.91;4974515;28;97744;-35
2022/07/26 02:58:33;;;;;;;1.35;0.80;;;;;;;19.09;67.30;101435.75;4974399;28;96533;-35
2022/07/26 03:00:58;;;;;;;2.80;1.10;;;;;;;19.12;67.46;101448.38;4974886;28;96777;-35
2022/07/26 03:03:24;;;;;;;4.47;1.25;;;;;;;19.14;67.56;101463.72;4974373;28;109664;-35
2022/07/26 03:05:49;;;;;;;3.15;1.08;;;;;;;19.08;67.95;101454.13;4974421;28;97906;-35
2022/07/26 03:08:15;;;;;;;5.55;1.45;;;;;;;19.07;67.97;101457.88;4974216;28;96816;-35
2022/07/26 03:10:40;;;;;;;2.22;1.05;;;;;;;19.05;68.29;101462.63;4975127;28;96884;-35
2022/07/26 03:13:05;;;;;;;3.75;1.05;;;;;;;19.00;68.35;101464.06;4974207;28;106590;-35
2022/07/26 03:15:31;;;;;;;4.32;1.00;;;;;;;19.02;68.37;101470.25;4974111;28;99241;-35
2022/07/26 03:17:56;;;;;;;3.05;1.00;;;;;;;19.01;68.30;101465.78;4974294;28;96575;-35
2022/07/26 03:20:21;;;;;;;2.22;0.80;;;;;;;18.96;68.47;101460.69;4974393;28;101252;-35
2022/07/26 03:22:47;;;;;;;7.10;1.35;;;;;;;18.96;68.70;101460.69;4973610;28;99399;-35
2022/07/26 03:25:13;;;;;;;3.08;0.90;;;;;;;19.01;67.94;101463.03;4974118;28;99148;-35
2022/07/26 03:27:38;;;;;;;1.52;0.80;;;;;;;19.02;68.09;101473.00;4974485;28;96576;-35
2022/07/26 03:30:05;;;;;;;5.18;1.20;;;;;;;18.97;68.85;101472.53;4974502;28;96750;-35
2022/07/26 03:32:31;;;;;;;3.15;0.80;;;;;;;18.93;68.29;101468.34;4973872;28;99516;-35
2022/07/26 03:34:56;;;;;;;1.85;1.00;;;;;;;18.96;68.36;101488.13;4972968;28;98822;-35
2022/07/26 03:37:22;;;;;;;1.10;0.75;;;;;;;18.92;68.75;101483.03;4973911;28;108371;-35
2022/07/26 03:39:47;;;;;;;1.55;0.82;;;;;;;18.86;68.52;101490.81;4974132;28;96876;-35
2022/07/26 03:42:13;;;;;;;1.45;0.80;;;;;;;18.77;68.75;101480.63;4972768;28;99435;-35
2022/07/26 03:44:38;;;;;;;3.90;1.10;;;;;;;18.87;68.65;101494.44;4974020;28;98305;-35
2022/07/26 03:47:04;;;;;;;2.72;0.85;;;;;;;18.84;69.31;101489.22;4976031;28;96683;-35
2022/07/26 03:49:29;;;;;;;3.05;0.82;;;;;;;18.83;68.98;101487.44;4976137;28;96832;-35
2022/07/26 03:51:54;;;;;;;1.42;0.60;;;;;;;18.88;68.84;101486.06;4976902;28;97393;-35
2022/07/26 03:54:21;;;;;;;2.65;1.02;;;;;;;18.94;68.88;101490.16;4977117;28;97773;-35
2022/07/26 03:56:50;;;;;;;5.10;1.02;;;;;;;18.95;68.89;101491.91;4975776;28;96698;-35
2022/07/26 03:59:17;;;;;;;0.88;0.82;;;;;;;18.96;68.93;101493.63;4977696;28;96760;-35
2022/07/26 04:01:43;;;;;;;2.10;0.73;;;;;;;18.88;68.88;101483.31;4975526;28;98912;-35
2022/07/26 04:04:10;;;;;;;1.65;0.70;;;;;;;18.98;68.35;101499.00;4975536;28;101344;-35
2022/07/26 04:06:36;;;;;;;3.63;1.20;;;;;;;18.95;69.04;101507.47;4975090;28;96839;-35
2022/07/26 04:09:03;;;;;;;7.60;1.17;;;;;;;18.89;68.88;101504.28;4977007;28;96783;-35
2022/07/26 04:11:28;;;;;;;2.50;1.23;;;;;;;18.87;68.77;101497.16;4975490;28;100953;-35
2022/07/26 04:13:54;;;;;;;4.13;1.33;;;;;;;18.86;68.88;101509.16;4976923;28;97745;-35
2022/07/26 04:16:19;;;;;;;2.35;0.90;;;;;;;18.84;69.39;101511.16;4977001;28;96629;-35
2022/07/26 04:18:45;;;;;;;2.22;0.82;;;;;;;18.86;69.19;101511.91;4976957;28;96862;-35
2022/07/26 04:21:10;;;;;;;1.60;0.95;;;;;;;18.81;68.87;101512.31;4976412;28;98952;-35
2022/07/26 04:23:35;;;;;;;2.50;1.13;;;;;;;18.84;69.34;101516.66;4977128;28;97831;-35
2022/07/26 04:26:01;;;;;;;0.82;0.80;;;;;;;18.76;68.97;101510.91;4977089;28;96668;-35
2022/07/26 04:28:27;;;;;;;2.83;1.08;;;;;;;18.80;69.13;101521.53;4976755;28;96899;-35
2022/07/26 04:30:54;;;;;;;2.45;1.30;;;;;;;18.81;68.68;101517.78;4975851;28;99399;-35
2022/07/26 04:33:19;;;;;;;3.17;1.38;;;;;;;18.76;68.95;101509.09;4974889;28;101010;-35
2022/07/26 04:35:45;;;;;;;5.30;1.40;;;;;;;18.75;68.73;101520.16;4976282;28;96637;-35
2022/07/26 04:38:10;;;;;;;4.68;1.42;;;;;;;18.72;69.09;101518.53;4976620;28;100325;-35
2022/07/26 04:40:36;;;;;;;2.90;1.25;;;;;;;18.67;69.14;101507.09;4974634;28;100001;-34
2022/07/26 04:43:01;;;;;;;3.25;1.52;;;;;;;18.65;68.87;101509.09;4973700;28;101299;-35
2022/07/26 04:45:27;;;;;;;4.05;1.25;;;;;;;18.71;69.28;101511.34;4975352;28;96591;-35
2022/07/26 04:47:52;;;;;;;5.13;1.85;;;;;;;18.68;69.00;101506.94;4974197;28;96780;-35
2022/07/26 04:50:19;;;;;;;5.63;1.45;;;;;;;18.69;69.26;101516.06;4974598;28;105325;-35
2022/07/26 04:52:44;;;;;;;6.10;1.25;;;;;;;18.73;68.83;101517.53;4973465;28;100695;-35
2022/07/26 04:55:17;;;;;;;2.20;1.08;;;;;;;18.74;69.38;101529.41;4974460;28;96677;-35
2022/07/26 04:57:42;;;;;;;3.45;1.08;;;;;;;18.68;69.24;101517.91;4973477;28;96819;-35
2022/07/26 05:00:12;;;;;;;3.45;1.50;;;;;;;18.68;68.85;101517.91;4974992;28;97953;-35
2022/07/26 05:02:37;;;;;;;4.20;1.42;;;;;;;18.66;68.95;101514.47;4974530;28;97169;-35
2022/07/26 05:05:04;;;;;;;4.97;1.40;;;;;;;18.67;69.17;101524.44;4973543;28;96604;-35
2022/07/26 05:07:40;;;;;;;5.32;1.20;;;;;;;18.61;69.52;101524.94;4973385;28;96909;-35
2022/07/26 05:10:05;;;;;;;9.93;1.63;;;;;;;18.70;69.06;101537.00;4973109;28;101184;-35
2022/07/26 05:12:31;;;;;;;4.00;1.20;;;;;;;18.70;69.14;101541.63;4974780;28;100193;-35
2022/07/26 05:14:56;;;;;;;3.47;1.20;;;;;;;18.68;69.45;101539.88;4974640;28;99447;-35
2022/07/26 05:17:21;;;;;;;4.50;1.40;;;;;;;18.69;69.82;101551.75;4974239;28;96848;-35
2022/07/26 05:19:47;;;;;;;2.28;0.82;;;;;;;18.71;69.41;101559.84;4973658;28;108705;-35
2022/07/26 05:22:12;;;;;;;2.22;1.00;;;;;;;18.64;69.78;101552.13;4974248;28;99156;-35
2022/07/26 05:24:37;;;;;;;11.90;1.02;;;;;;;18.68;69.46;101566.47;4974584;28;96619;-35
2022/07/26 05:27:03;;;;;;;2.97;0.80;;;;;;;18.60;70.65;101569.84;4974409;28;97144;-35
2022/07/26 05:29:28;;;;;;;8.57;1.55;;;;;;;18.60;70.44;101582.72;4974352;28;97957;-35
2022/07/26 05:31:53;;;;;;;1.65;0.75;;;;;;;18.56;70.34;101575.72;4973662;28;111296;-35
2022/07/26 05:34:19;;;;;;;0.70;0.32;;;;;;;18.49;70.90;101591.81;4974407;28;96560;-35
2022/07/26 05:36:44;;;;;;;0.60;0.40;;;;;;;18.45;70.50;101569.28;4974678;28;96486;-35
2022/07/26 05:39:09;;;;;;;0.30;0.20;;;;;;;18.54;70.73;101580.47;4973603;28;99294;-34
2022/07/26 05:41:35;;;;;;;0.82;0.40;;;;;;;18.62;71.12;101588.94;4434417;28;15040890;-35
2022/07/26 05:44:00;;;;;;;1.65;0.20;;;;;;;18.57;71.10;101585.72;4959369;28;97112;-35
2022/07/26 05:46:25;;;;;;;4.43;0.40;;;;;;;18.51;71.79;101591.72;4974778;28;96900;-35
2022/07/26 05:48:51;;;;;;;2.25;0.43;;;;;;;18.50;70.29;101590.84;4975426;28;96836;-35
2022/07/26 05:51:16;;;;;;;1.10;0.32;;;;;;;18.46;71.40;101587.47;4975477;28;96721;-35
2022/07/26 05:53:41;;;;;;;4.95;0.52;;;;;;;18.45;72.10;101584.88;4975064;28;97034;-35
2022/07/26 05:56:07;;;;;;;3.03;0.43;;;;;;;18.40;71.64;101585.25;4973018;28;97292;-35
2022/07/26 05:58:33;;;;;;;3.45;1.35;;;;;;;18.49;72.35;101611.03;4973652;28;99779;-35
2022/07/26 06:00:58;;;;;;;2.83;0.47;;;;;;;18.44;73.29;101611.41;4974978;28;96844;-35
2022/07/26 06:03:24;;;;;;;0.30;0.28;;;;;;;18.46;72.85;101617.66;4975244;28;96894;-35
2022/07/26 06:05:52;;;;;;;1.95;0.60;;;;;;;18.47;71.94;101621.25;4975192;28;97895;-35
2022/07/26 06:08:18;;;;;;;2.13;0.47;;;;;;;18.49;72.35;101619.25;4973293;28;96796;-35
2022/07/26 06:10:45;;;;;;;2.45;0.50;;;;;;;18.49;72.74;101616.50;4973435;28;96803;-35
2022/07/26 06:13:10;;;;;;;2.00;0.43;;;;;;;18.52;71.85;101632.75;4973463;28;101060;-35
2022/07/26 06:15:37;;;;;;;1.52;0.38;;;;;;;18.50;72.55;101621.03;4975113;28;97176;-35
2022/07/26 06:18:06;;;;;;;2.08;0.47;;;;;;;18.56;72.87;101634.22;4973788;28;96507;-35
2022/07/26 06:20:32;;;;;;;0.65;0.32;;;;;;;18.56;72.47;101633.34;4973791;28;96933;-35
2022/07/26 06:22:58;;;;;;;5.97;0.80;;;;;;;18.58;72.50;101639.59;4973462;28;100823;-35
2022/07/26 06:25:24;;;;;;;2.30;0.57;;;;;;;18.64;72.24;101653.69;4973869;28;100987;-35
2022/07/26 06:27:49;;;;;;;1.95;0.52;;;;;;;18.64;71.50;101645.44;4973835;28;96693;-35
2022/07/26 06:30:15;;;;;;;1.60;0.55;;;;;;;18.69;72.53;101645.06;4974958;28;96781;-35
2022/07/26 06:32:43;;;;;;;4.00;0.95;;;;;;;18.71;72.75;101645.81;4974333;28;97385;-35
2022/07/26 06:35:09;;;;;;;1.95;0.68;;;;;;;18.66;72.57;101645.28;4974615;28;99378;-35
2022/07/26 06:37:39;;;;;;;1.48;0.73;;;;;;;18.71;72.47;101665.03;4973541;28;96874;-35
2022/07/26 06:40:06;;;;;;;1.45;0.50;;;;;;;18.71;72.94;101664.13;4973657;28;96833;-35
2022/07/26 06:42:32;;;;;;;3.35;0.43;;;;;;;18.65;72.33;101666.38;4972508;28;101508;-35
2022/07/26 06:44:58;;;;;;;3.72;0.55;;;;;;;18.58;72.54;101667.03;4974336;28;99228;-35
2022/07/26 06:47:23;;;;;;;1.27;0.30;;;;;;;18.59;72.60;101675.16;4973419;28;96599;-35
2022/07/26 06:49:49;;;;;;;2.75;0.68;;;;;;;18.59;73.39;101664.16;4975354;28;96800;-35
2022/07/26 06:52:14;;;;;;;1.15;0.47;;;;;;;18.63;72.90;101679.34;4974213;28;110214;-35
2022/07/26 06:54:39;;;;;;;5.28;0.57;;;;;;;18.63;72.50;101665.63;4974670;28;97787;-35
2022/07/26 06:57:05;;;;;;;2.95;0.70;;;;;;;18.71;73.87;101675.09;4974217;28;96636;-35
2022/07/26 06:59:30;;;;;;;3.78;0.82;;;;;;;18.74;72.94;101694.09;4974607;28;96840;-35
2022/07/26 07:01:55;;;;;;;7.50;1.13;;;;;;;18.76;71.88;101684.75;4974694;28;97362;-35
2022/07/26 07:04:21;;;;;;;2.13;0.80;;;;;;;18.75;72.85;101682.09;4974575;28;97776;-35
2022/07/26 07:06:46;;;;;;;3.35;0.60;;;;;;;18.77;73.46;101682.88;4974279;28;96563;-35
2022/07/26 07:09:11;;;;;;;9.07;0.70;;;;;;;18.86;71.98;101690.34;4974458;28;97085;-35
2022/07/26 07:11:37;;;;;;;4.28;1.05;;;;;;;18.82;72.85;101686.97;4974445;28;97392;-35
2022/07/26 07:14:02;;;;;;;5.38;1.02;;;;;;;18.86;72.82;101676.63;4974580;28;97221;-35
2022/07/26 07:16:28;;;;;;;2.80;0.80;;;;;;;18.94;72.57;101687.84;4974986;28;96589;-35
2022/07/26 07:18:53;;;;;;;1.52;0.70;;;;;;;19.00;72.30;101691.97;4974600;28;96792;-35
2022/07/26 07:21:18;;;;;;;3.13;0.52;;;;;;;19.07;71.87;101691.31;4974491;28;98020;-35
2022/07/26 07:23:44;;;;;;;5.07;1.10;;;;;;;19.16;72.45;101691.50;4977296;28;103648;-35
2022/07/26 07:26:09;;;;;;;10.35;1.40;;;;;;;19.09;72.98;101692.06;4978119;28;96629;-35
2022/07/26 07:28:37;;;;;;;1.05;0.47;;;;;;;19.11;72.06;101700.13;4977720;28;96785;-35
2022/07/26 07:31:04;;;;;;;6.47;0.68;;;;;;;19.16;72.04;101697.88;4976032;28;100772;-35
2022/07/26 07:33:35;;;;;;;1.40;0.65;;;;;;;19.14;72.16;101686.16;4976008;28;100947;-35
2022/07/26 07:36:01;;;;;;;1.25;0.40;;;;;;;19.15;71.22;101698.03;4977866;28;96599;-35
2022/07/26 07:38:26;;;;;;;3.75;0.52;;;;;;;19.09;72.01;101696.66;4978115;28;96773;-35
2022/07/26 07:40:51;;;;;;;3.60;0.55;;;;;;;19.10;72.00;101704.78;4976550;28;111456;-35
2022/07/26 07:43:17;;;;;;;3.35;0.75;;;;;;;19.07;71.77;101715.16;4976962;28;98717;-35
2022/07/26 07:45:42;;;;;;;2.22;0.47;;;;;;;19.02;71.69;101712.78;4977070;28;96613;-35
2022/07/26 07:48:07;;;;;;;2.75;0.50;;;;;;;18.91;71.83;101711.94;4977655;28;96754;-35
2022/07/26 07:50:33;;;;;;;3.58;0.40;;;;;;;18.85;72.07;101727.03;4977140;28;109417;-35
2022/07/26 07:52:58;;;;;;;2.05;0.55;;;;;;;18.78;72.43;101723.94;4977137;28;97245;-35
2022/07/26 07:55:23;;;;;;;5.43;0.98;;;;;;;18.77;72.27;101726.81;4976725;28;107318;-35
2022/07/26 07:57:49;;;;;;;6.07;0.60;;;;;;;18.76;72.91;101723.19;4976654;28;96965;-35
2022/07/26 08:00:17;;;;;;;2.72;0.43;;;;;;;18.72;73.12;101732.63;4976758;28;99284;-35
2022/07/26 08:02:44;;;;;;;2.00;0.35;;;;;;;18.73;72.97;101734.38;4975788;28;101168;-35
2022/07/26 08:05:09;;;;;;;1.38;0.30;;;;;;;18.79;72.62;101731.16;4977234;28;96635;-35
2022/07/26 08:07:34;;;;;;;1.17;0.30;;;;;;;18.77;73.36;101732.28;4976790;28;96779;-35
2022/07/26 08:10:00;;;;;;;3.70;0.50;;;;;;;18.77;73.13;101735.91;4976230;28;98808;-35
2022/07/26 08:12:25;;;;;;;0.85;0.30;;;;;;;18.76;73.60;101735.97;4976369;28;103865;-35
2022/07/26 08:14:50;;;;;;;11.63;1.85;;;;;;;18.79;72.50;101738.53;4976783;28;97163;-35
2022/07/26 08:17:16;;;;;;;4.25;0.73;;;;;;;18.76;73.09;101733.25;4976309;28;114513;-35
2022/07/26 08:19:42;;;;;;;2.30;0.50;;;;;;;18.77;72.49;101724.94;4976746;28;97729;-35
2022/07/26 08:22:07;;;;;;;3.05;0.40;;;;;;;18.98;71.49;101751.63;4976772;28;97152;-34
2022/07/26 08:24:33;;;;;;;1.58;0.38;;;;;;;19.16;71.56;101738.22;4977002;28;96524;-34
2022/07/26 08:27:05;;;;;;;0.30;0.25;;;;;;;19.29;71.47;101741.69;4975708;28;96835;-34
2022/07/26 08:29:31;;;;;;;2.67;0.55;;;;;;;19.41;71.15;101746.13;4975074;28;100500;-34
2022/07/26 08:31:56;;;;;;;7.20;0.80;;;;;;;19.51;70.65;101751.72;4976266;28;97519;-34
2022/07/26 08:34:21;;;;;;;3.25;0.63;;;;;;;19.53;70.05;101755.22;4976261;28;96480;-34
2022/07/26 08:36:47;;;;;;;1.08;0.40;;;;;;;19.49;70.17;101760.09;4976855;28;96790;-34
2022/07/26 08:39:12;;;;;;;6.18;1.13;;;;;;;19.48;70.65;101766.59;4976342;28;97424;-35
2022/07/26 08:41:39;;;;;;;0.98;0.45;;;;;;;19.33;70.48;101776.16;4975719;28;97750;-34
2022/07/26 08:44:10;;;;;;;4.38;0.82;;;;;;;19.24;71.11;101787.91;4975049;28;96537;-34
2022/07/26 08:46:37;;;;;;;1.55;0.47;;;;;;;19.10;71.69;101789.03;4975204;28;96696;-34
2022/07/26 08:49:05;;;;;;;3.85;0.65;;;;;;;19.05;71.45;101791.31;4974638;28;102904;-34
2022/07/26 08:51:31;;;;;;;0.65;0.30;;;;;;;18.98;71.79;101785.44;4976592;28;97957;-34
2022/07/26 08:53:58;;;;;;;2.83;0.63;;;;;;;18.97;72.12;101789.16;4974787;28;96935;-34
2022/07/26 08:56:23;;;;;;;0.43;0.30;;;;;;;18.98;71.86;101781.81;4975034;28;96760;-34
2022/07/26 08:58:49;;;;;;;2.53;1.23;;;;;;;18.94;71.97;101769.34;4975271;28;102000;-34
2022/07/26 09:01:14;;;;;;;0.60;0.30;;;;;;;19.04;71.71;101781.28;4975984;28;97703;-34
2022/07/26 09:03:41;;;;;;;3.65;0.57;;;;;;;19.12;71.77;101773.31;4976085;28;96644;-34
2022/07/26 09:06:15;;;;;;;0.65;0.30;;;;;;;19.34;72.62;101775.13;4974697;28;96809;-34
2022/07/26 09:08:41;;;;;;;0.40;0.30;;;;;;;19.83;71.26;101773.75;4974238;28;100189;-34
2022/07/26 09:11:29;;;;;;;3.50;0.50;;;;;;;20.26;70.65;101783.78;4974502;28;100605;-34
2022/07/26 09:13:59;;;;;;;10.63;0.80;;;;;;;20.24;70.07;101785.78;4974713;28;96570;-34
2022/07/26 09:16:26;;;;;;;1.77;0.47;;;;;;;20.26;69.43;101791.13;4975124;28;96716;-34
2022/07/26 09:18:51;;;;;;;2.47;0.68;;;;;;;20.19;69.20;101796.31;4974129;28;100834;-35
2022/07/26 09:21:29;;;;;;;1.38;0.80;;;;;;;20.03;69.79;101813.28;4974218;28;100841;-34
2022/07/26 09:23:55;;;;;;;3.17;0.40;;;;;;;19.71;70.01;101810.50;4975620;28;96805;-34
2022/07/26 09:26:20;;;;;;;0.47;0.30;;;;;;;19.51;70.03;101809.44;4976051;28;96881;-34
2022/07/26 09:29:00;;;;;;;1.92;0.45;;;;;;;19.36;70.04;101818.97;4975751;28;97988;-34
2022/07/26 09:31:26;;;;;;;4.13;0.50;;;;;;;19.22;70.42;101815.50;4974116;28;100738;-34
2022/07/26 09:33:51;;;;;;;1.73;0.45;;;;;;;19.16;70.25;101823.34;4975989;28;96534;-34
2022/07/26 09:36:17;;;;;;;0.93;0.30;;;;;;;19.11;70.80;101821.00;4975836;28;96778;-34
2022/07/26 09:38:45;;;;;;;3.38;1.00;;;;;;;19.14;70.54;101836.34;4973949;28;101026;-34
2022/07/26 09:41:18;;;;;;;2.67;0.55;;;;;;;19.19;70.72;101829.50;4973557;28;100990;-34
2022/07/26 09:44:01;;;;;;;2.35;0.60;;;;;;;19.21;70.17;101827.50;4974673;28;96631;-34
2022/07/26 09:46:28;;;;;;;2.03;0.80;;;;;;;19.16;70.27;101828.84;4974192;28;96822;-34
2022/07/26 09:48:55;;;;;;;4.43;1.00;;;;;;;19.28;70.22;101836.97;4974836;28;98026;-34
2022/07/26 09:51:44;;;;;;;4.13;0.80;;;;;;;19.37;69.28;101837.19;4975279;28;97353;-34
2022/07/26 09:54:11;;;;;;;4.00;1.00;;;;;;;19.40;69.25;101835.09;4975836;28;96586;-34
2022/07/26 09:56:51;;;;;;;1.60;0.60;;;;;;;19.43;69.19;101837.56;4974082;28;97060;-34
2022/07/26 09:59:19;;;;;;;1.58;0.32;;;;;;;19.58;68.59;101842.78;4973886;28;101090;-34
2022/07/26 10:01:46;;;;;;;3.05;0.60;;;;;;;19.61;67.93;101831.50;4973731;28;101231;-34
2022/07/26 10:04:12;;;;;;;6.70;0.70;;;;;;;19.58;67.66;101851.03;4973950;28;96671;-34
2022/07/26 10:06:39;;;;;;;1.80;0.43;;;;;;;19.52;67.87;101855.13;4974017;28;96742;-35
2022/07/26 10:09:05;;;;;;;1.70;0.40;;;;;;;19.39;68.09;101844.31;4973327;28;101287;-34
2022/07/26 10:11:40;;;;;;;3.03;0.52;;;;;;;19.35;68.06;101850.19;4973621;28;100852;-34
2022/07/26 10:14:37;;;;;;;1.10;0.40;;;;;;;19.41;67.13;101855.19;4973516;28;96630;-34
2022/07/26 10:17:27;;;;;;;3.30;0.38;;;;;;;19.40;67.62;101857.06;4975125;28;96996;-34
2022/07/26 10:19:56;;;;;;;2.40;0.38;;;;;;;19.31;67.23;101855.06;4974764;28;99002;-34
2022/07/26 10:22:39;;;;;;;2.97;0.65;;;;;;;19.35;67.61;101870.28;4973409;28;100803;-34
2022/07/26 10:25:17;;;;;;;3.92;0.75;;;;;;;19.35;67.17;101862.03;4973769;28;96645;-34
2022/07/26 10:27:46;;;;;;;3.60;0.80;;;;;;;19.44;67.39;101863.16;4975089;28;96806;-34
2022/07/26 10:30:21;;;;;;;3.03;0.57;;;;;;;19.47;67.36;101865.66;4973255;28;101159;-34
2022/07/26 10:32:49;;;;;;;3.40;0.70;;;;;;;19.52;67.14;101877.13;4973713;28;100674;-34
2022/07/26 10:35:39;;;;;;;4.32;0.95;;;;;;;19.56;66.54;101880.50;4974842;28;96496;-34
2022/07/26 10:38:11;;;;;;;5.30;0.65;;;;;;;19.55;66.49;101878.78;4973384;28;96736;-35
2022/07/26 10:40:38;;;;;;;3.83;0.57;;;;;;;19.64;66.27;101873.38;4972625;28;100481;-33
2022/07/26 10:43:07;;;;;;;2.78;0.70;;;;;;;19.76;66.35;101882.50;4974535;28;98849;-34
2022/07/26 10:45:33;;;;;;;1.40;0.57;;;;;;;19.87;65.58;101879.72;4975100;28;96562;-34
2022/07/26 10:48:28;;;;;;;2.55;0.50;;;;;;;20.02;64.34;101880.31;4974934;28;96842;-34
2022/07/26 10:50:53;;;;;;;0.88;0.52;;;;;;;20.15;64.16;101882.88;4973397;28;97983;-34
2022/07/26 10:53:24;;;;;;;2.13;0.38;;;;;;;20.26;63.71;101882.81;4973017;28;98208;-34
2022/07/26 10:55:56;;;;;;;6.30;0.77;;;;;;;20.35;63.67;101875.63;4975067;28;96676;-34
2022/07/26 10:58:41;;;;;;;2.22;0.65;;;;;;;20.41;62.46;101877.88;4978442;28;96792;-34
2022/07/26 11:01:06;;;;;;;3.95;0.55;;;;;;;20.42;63.02;101871.34;4976394;28;100870;-34
2022/07/26 11:03:41;;;;;;;2.50;0.60;;;;;;;20.45;63.42;101879.34;4977925;28;97990;-34
2022/07/26 11:06:10;;;;;;;2.00;0.68;;;;;;;20.48;62.77;101884.59;4976224;28;96740;-34
2022/07/26 11:08:35;;;;;;;5.05;0.50;;;;;;;20.54;62.74;101891.41;4977807;28;96766;-34
2022/07/26 11:11:01;;;;;;;2.83;0.80;;;;;;;20.59;62.64;101891.91;4977469;28;106349;-34
2022/07/26 11:13:31;;;;;;;3.90;1.00;;;;;;;20.58;62.36;101888.31;4977944;28;97229;-34
2022/07/26 11:16:02;;;;;;;3.17;0.45;;;;;;;20.39;61.78;101881.75;4976573;28;96656;-34
2022/07/26 11:18:34;;;;;;;;;;;;;;;20.48;61.98;101892.84;4977029;28;96871;-34
2022/07/26 11:21:13;;;;;;;3.05;0.30;;;;;;;20.51;61.98;101887.06;4977678;28;99429;-34
2022/07/26 11:23:42;;;;;;;2.50;0.50;;;;;;;20.63;61.10;101876.03;4976498;28;101039;-34